Ludlow, Massachusetts
Current Conditions -  °F | °C
As of 7:58 PM on Saturday 22 Nov 2014 (Local Time) from KCEF Reporting Station
Overcast Overcast  
Wind Chill: 30°   Ceiling: 10000
Heat Index: 38°   Visibility: 10mi
Dew Point: 14°   Wind: 12mph
Humidity: 37%   Direction: 190°S
Pressure: 30.12"   Gusts: NA
Location:  42.16°N, 72.48°W
Report Text: KCEF 230058Z AUTO 19010KT 10SM SCT047 OVC100 03/M10 A3012 RMK AO2 CIG 048 RWY05 SLP209 T00331101 10052 20032
Loading
Personal Weather Stations






























Interactive Weather Map New forecast layout! Learn more

10-Day Weather Forecast

Advertisements
Track Severe Weather on mobile